sensor_id;sensor_type;location;lat;lon;timestamp;P1;durP1;ratioP1;P2;durP2;ratioP2
79454;SDS011;68900;52.134;5.420;2024-02-14T00:00:02;5.38;;;2.70;;
79454;SDS011;68900;52.134;5.420;2024-02-14T00:02:29;6.75;;;2.72;;
79454;SDS011;68900;52.134;5.420;2024-02-14T00:04:55;6.93;;;2.60;;
79454;SDS011;68900;52.134;5.420;2024-02-14T00:07:22;5.50;;;2.50;;
79454;SDS011;68900;52.134;5.420;2024-02-14T00:09:48;5.45;;;2.50;;
79454;SDS011;68900;52.134;5.420;2024-02-14T00:12:15;5.43;;;2.80;;
79454;SDS011;68900;52.134;5.420;2024-02-14T00:14:41;5.38;;;2.60;;
79454;SDS011;68900;52.134;5.420;2024-02-14T00:17:11;4.97;;;2.20;;
79454;SDS011;68900;52.134;5.420;2024-02-14T00:19:38;7.05;;;2.63;;
79454;SDS011;68900;52.134;5.420;2024-02-14T00:22:05;8.13;;;2.40;;
79454;SDS011;68900;52.134;5.420;2024-02-14T00:24:32;5.40;;;2.53;;
79454;SDS011;68900;52.134;5.420;2024-02-14T00:26:58;5.30;;;2.67;;
79454;SDS011;68900;52.134;5.420;2024-02-14T00:29:26;5.15;;;2.63;;
79454;SDS011;68900;52.134;5.420;2024-02-14T00:31:53;6.38;;;2.90;;
79454;SDS011;68900;52.134;5.420;2024-02-14T00:34:19;5.95;;;2.78;;
79454;SDS011;68900;52.134;5.420;2024-02-14T00:36:47;4.88;;;2.58;;
79454;SDS011;68900;52.134;5.420;2024-02-14T00:39:14;6.85;;;2.95;;
79454;SDS011;68900;52.134;5.420;2024-02-14T00:41:40;5.03;;;2.75;;
79454;SDS011;68900;52.134;5.420;2024-02-14T00:44:07;5.95;;;3.28;;
79454;SDS011;68900;52.134;5.420;2024-02-14T00:46:33;7.65;;;3.15;;
79454;SDS011;68900;52.134;5.420;2024-02-14T00:49:00;5.38;;;3.20;;
79454;SDS011;68900;52.134;5.420;2024-02-14T00:51:27;5.68;;;3.10;;
79454;SDS011;68900;52.134;5.420;2024-02-14T00:53:53;6.93;;;3.38;;
79454;SDS011;68900;52.134;5.420;2024-02-14T00:56:20;6.28;;;3.30;;
79454;SDS011;68900;52.134;5.420;2024-02-14T00:58:47;5.85;;;3.38;;
79454;SDS011;68900;52.134;5.420;2024-02-14T01:01:13;6.53;;;3.60;;
79454;SDS011;68900;52.134;5.420;2024-02-14T01:03:40;7.68;;;4.10;;
79454;SDS011;68900;52.134;5.420;2024-02-14T01:06:07;6.47;;;3.75;;
79454;SDS011;68900;52.134;5.420;2024-02-14T01:08:34;7.15;;;3.88;;
79454;SDS011;68900;52.134;5.420;2024-02-14T01:11:02;6.53;;;4.22;;
79454;SDS011;68900;52.134;5.420;2024-02-14T01:13:29;8.75;;;4.60;;
79454;SDS011;68900;52.134;5.420;2024-02-14T01:15:55;7.53;;;4.30;;
79454;SDS011;68900;52.134;5.420;2024-02-14T01:18:22;7.70;;;4.38;;
79454;SDS011;68900;52.134;5.420;2024-02-14T01:20:49;5.70;;;3.65;;
79454;SDS011;68900;52.134;5.420;2024-02-14T01:23:15;7.18;;;4.20;;
79454;SDS011;68900;52.134;5.420;2024-02-14T01:25:42;9.32;;;4.53;;
79454;SDS011;68900;52.134;5.420;2024-02-14T01:28:09;9.82;;;4.82;;
79454;SDS011;68900;52.134;5.420;2024-02-14T01:30:36;7.85;;;4.38;;
79454;SDS011;68900;52.134;5.420;2024-02-14T01:33:02;7.40;;;4.60;;
79454;SDS011;68900;52.134;5.420;2024-02-14T01:35:32;8.95;;;4.28;;
79454;SDS011;68900;52.134;5.420;2024-02-14T01:37:58;9.00;;;4.90;;
79454;SDS011;68900;52.134;5.420;2024-02-14T01:40:25;8.75;;;5.10;;
79454;SDS011;68900;52.134;5.420;2024-02-14T01:42:51;7.07;;;4.45;;
79454;SDS011;68900;52.134;5.420;2024-02-14T01:45:18;8.57;;;4.63;;
79454;SDS011;68900;52.134;5.420;2024-02-14T01:47:45;7.70;;;4.15;;
79454;SDS011;68900;52.134;5.420;2024-02-14T01:50:12;7.47;;;3.97;;
79454;SDS011;68900;52.134;5.420;2024-02-14T01:52:38;8.40;;;4.93;;
79454;SDS011;68900;52.134;5.420;2024-02-14T01:55:07;8.90;;;4.65;;
79454;SDS011;68900;52.134;5.420;2024-02-14T01:57:34;7.82;;;4.55;;
79454;SDS011;68900;52.134;5.420;2024-02-14T02:00:01;7.55;;;4.63;;
79454;SDS011;68900;52.134;5.420;2024-02-14T02:02:35;6.70;;;4.30;;
79454;SDS011;68900;52.134;5.420;2024-02-14T02:05:03;9.05;;;4.85;;
79454;SDS011;68900;52.134;5.420;2024-02-14T02:07:31;8.55;;;5.35;;
79454;SDS011;68900;52.134;5.420;2024-02-14T02:09:58;8.45;;;5.38;;
79454;SDS011;68900;52.134;5.420;2024-02-14T02:12:26;9.70;;;5.40;;
79454;SDS011;68900;52.134;5.420;2024-02-14T02:14:53;10.68;;;5.78;;
79454;SDS011;68900;52.134;5.420;2024-02-14T02:17:20;10.48;;;5.63;;
79454;SDS011;68900;52.134;5.420;2024-02-14T02:19:47;8.05;;;5.03;;
79454;SDS011;68900;52.134;5.420;2024-02-14T02:22:13;9.77;;;5.13;;
79454;SDS011;68900;52.134;5.420;2024-02-14T02:24:40;10.48;;;5.32;;
79454;SDS011;68900;52.134;5.420;2024-02-14T02:27:06;11.02;;;5.03;;
79454;SDS011;68900;52.134;5.420;2024-02-14T02:29:33;9.10;;;5.15;;
79454;SDS011;68900;52.134;5.420;2024-02-14T02:32:00;7.68;;;4.63;;
79454;SDS011;68900;52.134;5.420;2024-02-14T02:34:26;8.52;;;5.55;;
79454;SDS011;68900;52.134;5.420;2024-02-14T02:36:53;8.13;;;4.97;;
79454;SDS011;68900;52.134;5.420;2024-02-14T02:39:20;8.75;;;5.53;;
79454;SDS011;68900;52.134;5.420;2024-02-14T02:41:47;7.25;;;4.53;;
79454;SDS011;68900;52.134;5.420;2024-02-14T02:44:16;9.43;;;5.10;;
79454;SDS011;68900;52.134;5.420;2024-02-14T02:46:42;8.77;;;5.40;;
79454;SDS011;68900;52.134;5.420;2024-02-14T02:49:12;9.82;;;5.63;;
79454;SDS011;68900;52.134;5.420;2024-02-14T02:51:40;8.65;;;5.78;;
79454;SDS011;68900;52.134;5.420;2024-02-14T02:54:07;9.75;;;6.07;;
79454;SDS011;68900;52.134;5.420;2024-02-14T02:56:34;8.77;;;5.57;;
79454;SDS011;68900;52.134;5.420;2024-02-14T02:59:01;8.68;;;5.88;;
79454;SDS011;68900;52.134;5.420;2024-02-14T03:01:35;9.15;;;6.00;;
79454;SDS011;68900;52.134;5.420;2024-02-14T03:04:02;8.57;;;5.88;;
79454;SDS011;68900;52.134;5.420;2024-02-14T03:06:29;8.77;;;5.10;;
79454;SDS011;68900;52.134;5.420;2024-02-14T03:08:56;8.73;;;5.30;;
79454;SDS011;68900;52.134;5.420;2024-02-14T03:11:23;8.00;;;4.93;;
79454;SDS011;68900;52.134;5.420;2024-02-14T03:13:52;8.98;;;5.22;;
79454;SDS011;68900;52.134;5.420;2024-02-14T03:16:18;8.27;;;4.80;;
79454;SDS011;68900;52.134;5.420;2024-02-14T03:18:45;10.80;;;5.65;;
79454;SDS011;68900;52.134;5.420;2024-02-14T03:21:12;10.38;;;5.50;;
79454;SDS011;68900;52.134;5.420;2024-02-14T03:23:38;8.25;;;5.15;;
79454;SDS011;68900;52.134;5.420;2024-02-14T03:26:06;9.35;;;5.40;;
79454;SDS011;68900;52.134;5.420;2024-02-14T03:28:36;9.35;;;5.07;;
79454;SDS011;68900;52.134;5.420;2024-02-14T03:31:03;9.55;;;5.85;;
79454;SDS011;68900;52.134;5.420;2024-02-14T03:33:30;11.27;;;6.38;;
79454;SDS011;68900;52.134;5.420;2024-02-14T03:35:57;9.80;;;6.00;;
79454;SDS011;68900;52.134;5.420;2024-02-14T03:38:24;9.30;;;5.97;;
79454;SDS011;68900;52.134;5.420;2024-02-14T03:40:52;12.45;;;6.22;;
79454;SDS011;68900;52.134;5.420;2024-02-14T03:43:19;11.15;;;6.10;;
79454;SDS011;68900;52.134;5.420;2024-02-14T03:45:46;9.85;;;6.00;;
79454;SDS011;68900;52.134;5.420;2024-02-14T03:48:12;11.27;;;7.00;;
79454;SDS011;68900;52.134;5.420;2024-02-14T03:50:42;11.95;;;6.35;;
79454;SDS011;68900;52.134;5.420;2024-02-14T03:53:09;11.57;;;6.30;;
79454;SDS011;68900;52.134;5.420;2024-02-14T03:55:38;11.15;;;6.40;;
79454;SDS011;68900;52.134;5.420;2024-02-14T03:58:05;15.98;;;6.10;;
79454;SDS011;68900;52.134;5.420;2024-02-14T04:00:34;10.02;;;5.78;;
79454;SDS011;68900;52.134;5.420;2024-02-14T04:03:01;11.07;;;6.40;;
79454;SDS011;68900;52.134;5.420;2024-02-14T04:05:30;11.88;;;6.80;;
79454;SDS011;68900;52.134;5.420;2024-02-14T04:07:58;12.55;;;6.32;;
79454;SDS011;68900;52.134;5.420;2024-02-14T04:10:24;11.80;;;6.32;;
79454;SDS011;68900;52.134;5.420;2024-02-14T04:12:51;12.85;;;6.63;;
79454;SDS011;68900;52.134;5.420;2024-02-14T04:15:17;12.57;;;6.50;;
79454;SDS011;68900;52.134;5.420;2024-02-14T04:17:44;15.48;;;6.85;;
79454;SDS011;68900;52.134;5.420;2024-02-14T04:20:10;14.32;;;6.40;;
79454;SDS011;68900;52.134;5.420;2024-02-14T04:22:37;11.95;;;6.30;;
79454;SDS011;68900;52.134;5.420;2024-02-14T04:25:03;17.33;;;6.70;;
79454;SDS011;68900;52.134;5.420;2024-02-14T04:27:30;11.07;;;6.05;;
79454;SDS011;68900;52.134;5.420;2024-02-14T04:30:00;13.68;;;6.30;;
79454;SDS011;68900;52.134;5.420;2024-02-14T04:32:28;15.13;;;6.78;;
79454;SDS011;68900;52.134;5.420;2024-02-14T04:34:55;15.32;;;6.40;;
79454;SDS011;68900;52.134;5.420;2024-02-14T04:37:23;14.38;;;6.55;;
79454;SDS011;68900;52.134;5.420;2024-02-14T04:39:50;15.73;;;6.60;;
79454;SDS011;68900;52.134;5.420;2024-02-14T04:42:16;12.88;;;6.50;;
79454;SDS011;68900;52.134;5.420;2024-02-14T04:44:43;14.23;;;6.38;;
79454;SDS011;68900;52.134;5.420;2024-02-14T04:47:10;17.13;;;6.82;;
79454;SDS011;68900;52.134;5.420;2024-02-14T04:49:36;15.32;;;6.85;;
79454;SDS011;68900;52.134;5.420;2024-02-14T04:52:04;15.07;;;6.90;;
79454;SDS011;68900;52.134;5.420;2024-02-14T04:54:30;14.40;;;6.20;;
79454;SDS011;68900;52.134;5.420;2024-02-14T04:57:00;17.30;;;7.13;;
79454;SDS011;68900;52.134;5.420;2024-02-14T04:59:28;12.80;;;7.03;;
79454;SDS011;68900;52.134;5.420;2024-02-14T05:01:55;18.98;;;7.05;;
79454;SDS011;68900;52.134;5.420;2024-02-14T05:04:22;12.98;;;7.25;;
79454;SDS011;68900;52.134;5.420;2024-02-14T05:06:49;11.95;;;6.72;;
79454;SDS011;68900;52.134;5.420;2024-02-14T05:09:20;15.25;;;7.05;;
79454;SDS011;68900;52.134;5.420;2024-02-14T05:11:46;13.20;;;6.57;;
79454;SDS011;68900;52.134;5.420;2024-02-14T05:14:13;16.42;;;7.38;;
79454;SDS011;68900;52.134;5.420;2024-02-14T05:16:39;11.75;;;7.18;;
79454;SDS011;68900;52.134;5.420;2024-02-14T05:19:06;17.17;;;8.55;;
79454;SDS011;68900;52.134;5.420;2024-02-14T05:21:33;16.42;;;7.65;;
79454;SDS011;68900;52.134;5.420;2024-02-14T05:24:00;16.35;;;7.32;;
79454;SDS011;68900;52.134;5.420;2024-02-14T05:26:26;17.98;;;7.80;;
79454;SDS011;68900;52.134;5.420;2024-02-14T05:28:53;17.67;;;7.82;;
79454;SDS011;68900;52.134;5.420;2024-02-14T05:31:19;18.25;;;8.73;;
79454;SDS011;68900;52.134;5.420;2024-02-14T05:33:46;15.95;;;7.55;;
79454;SDS011;68900;52.134;5.420;2024-02-14T05:36:13;17.83;;;7.95;;
79454;SDS011;68900;52.134;5.420;2024-02-14T05:38:42;16.33;;;8.93;;
79454;SDS011;68900;52.134;5.420;2024-02-14T05:41:09;13.43;;;8.13;;
79454;SDS011;68900;52.134;5.420;2024-02-14T05:43:37;16.42;;;8.82;;
79454;SDS011;68900;52.134;5.420;2024-02-14T05:46:04;13.60;;;8.10;;
79454;SDS011;68900;52.134;5.420;2024-02-14T05:48:31;13.93;;;8.38;;
79454;SDS011;68900;52.134;5.420;2024-02-14T05:51:00;15.52;;;7.70;;
79454;SDS011;68900;52.134;5.420;2024-02-14T05:53:26;12.98;;;7.50;;
79454;SDS011;68900;52.134;5.420;2024-02-14T05:55:56;11.13;;;7.10;;
79454;SDS011;68900;52.134;5.420;2024-02-14T05:58:22;11.52;;;7.00;;
79454;SDS011;68900;52.134;5.420;2024-02-14T06:00:50;10.95;;;6.57;;
79454;SDS011;68900;52.134;5.420;2024-02-14T06:03:16;11.70;;;5.90;;
79454;SDS011;68900;52.134;5.420;2024-02-14T06:05:43;12.20;;;6.70;;
79454;SDS011;68900;52.134;5.420;2024-02-14T06:08:10;9.75;;;6.32;;
79454;SDS011;68900;52.134;5.420;2024-02-14T06:10:37;10.82;;;6.15;;
79454;SDS011;68900;52.134;5.420;2024-02-14T06:13:05;10.13;;;6.38;;
79454;SDS011;68900;52.134;5.420;2024-02-14T06:15:31;11.75;;;6.38;;
79454;SDS011;68900;52.134;5.420;2024-02-14T06:17:58;10.70;;;6.40;;
79454;SDS011;68900;52.134;5.420;2024-02-14T06:20:25;10.73;;;6.32;;
79454;SDS011;68900;52.134;5.420;2024-02-14T06:22:56;8.98;;;5.90;;
79454;SDS011;68900;52.134;5.420;2024-02-14T06:25:31;10.27;;;6.15;;
79454;SDS011;68900;52.134;5.420;2024-02-14T06:27:57;10.52;;;5.93;;
79454;SDS011;68900;52.134;5.420;2024-02-14T06:30:24;9.57;;;6.45;;
79454;SDS011;68900;52.134;5.420;2024-02-14T06:32:54;12.20;;;6.80;;
79454;SDS011;68900;52.134;5.420;2024-02-14T06:35:22;8.18;;;5.60;;
79454;SDS011;68900;52.134;5.420;2024-02-14T06:37:55;9.40;;;5.88;;
79454;SDS011;68900;52.134;5.420;2024-02-14T06:40:39;10.05;;;5.65;;
79454;SDS011;68900;52.134;5.420;2024-02-14T06:43:10;9.23;;;5.75;;
79454;SDS011;68900;52.134;5.420;2024-02-14T06:45:36;10.20;;;5.70;;
79454;SDS011;68900;52.134;5.420;2024-02-14T06:48:03;11.80;;;6.05;;
79454;SDS011;68900;52.134;5.420;2024-02-14T06:50:30;10.80;;;6.28;;
79454;SDS011;68900;52.134;5.420;2024-02-14T06:52:57;11.45;;;6.30;;
79454;SDS011;68900;52.134;5.420;2024-02-14T06:55:26;12.88;;;6.75;;
79454;SDS011;68900;52.134;5.420;2024-02-14T06:57:53;11.82;;;6.63;;
79454;SDS011;68900;52.134;5.420;2024-02-14T07:00:20;13.15;;;7.00;;
79454;SDS011;68900;52.134;5.420;2024-02-14T07:02:53;14.02;;;7.18;;
79454;SDS011;68900;52.134;5.420;2024-02-14T07:07:49;14.38;;;6.72;;
79454;SDS011;68900;52.134;5.420;2024-02-14T07:10:22;13.18;;;7.93;;
79454;SDS011;68900;52.134;5.420;2024-02-14T07:12:52;15.40;;;7.50;;
79454;SDS011;68900;52.134;5.420;2024-02-14T07:15:18;15.00;;;7.43;;
79454;SDS011;68900;52.134;5.420;2024-02-14T07:17:46;17.50;;;7.72;;
79454;SDS011;68900;52.134;5.420;2024-02-14T07:20:13;15.00;;;7.85;;
79454;SDS011;68900;52.134;5.420;2024-02-14T07:22:48;15.27;;;7.70;;
79454;SDS011;68900;52.134;5.420;2024-02-14T07:25:19;15.73;;;8.25;;
79454;SDS011;68900;52.134;5.420;2024-02-14T07:27:46;16.40;;;8.82;;
79454;SDS011;68900;52.134;5.420;2024-02-14T07:30:18;17.40;;;9.25;;
79454;SDS011;68900;52.134;5.420;2024-02-14T07:32:44;16.55;;;8.32;;
79454;SDS011;68900;52.134;5.420;2024-02-14T07:35:11;15.00;;;8.98;;
79454;SDS011;68900;52.134;5.420;2024-02-14T07:37:39;15.82;;;8.38;;
79454;SDS011;68900;52.134;5.420;2024-02-14T07:40:08;18.05;;;8.10;;
79454;SDS011;68900;52.134;5.420;2024-02-14T07:42:35;15.00;;;7.90;;
79454;SDS011;68900;52.134;5.420;2024-02-14T07:45:02;17.58;;;8.40;;
79454;SDS011;68900;52.134;5.420;2024-02-14T07:47:30;15.45;;;8.02;;
79454;SDS011;68900;52.134;5.420;2024-02-14T07:49:56;16.02;;;8.13;;
79454;SDS011;68900;52.134;5.420;2024-02-14T07:52:24;16.08;;;9.23;;
79454;SDS011;68900;52.134;5.420;2024-02-14T07:54:53;15.68;;;9.00;;
79454;SDS011;68900;52.134;5.420;2024-02-14T07:57:23;15.70;;;8.85;;
79454;SDS011;68900;52.134;5.420;2024-02-14T07:59:51;16.38;;;8.93;;
79454;SDS011;68900;52.134;5.420;2024-02-14T08:02:18;16.10;;;8.77;;
79454;SDS011;68900;52.134;5.420;2024-02-14T08:04:45;13.77;;;8.55;;
79454;SDS011;68900;52.134;5.420;2024-02-14T08:07:12;16.50;;;9.13;;
79454;SDS011;68900;52.134;5.420;2024-02-14T08:09:38;16.20;;;9.73;;
79454;SDS011;68900;52.134;5.420;2024-02-14T08:12:07;16.83;;;8.98;;
79454;SDS011;68900;52.134;5.420;2024-02-14T08:14:41;15.38;;;9.35;;
79454;SDS011;68900;52.134;5.420;2024-02-14T08:17:11;15.52;;;8.18;;
79454;SDS011;68900;52.134;5.420;2024-02-14T08:19:37;17.25;;;8.73;;
79454;SDS011;68900;52.134;5.420;2024-02-14T08:22:05;13.90;;;8.40;;
79454;SDS011;68900;52.134;5.420;2024-02-14T08:24:35;14.30;;;8.77;;
79454;SDS011;68900;52.134;5.420;2024-02-14T08:27:08;15.13;;;8.25;;
79454;SDS011;68900;52.134;5.420;2024-02-14T08:29:35;13.70;;;8.25;;
79454;SDS011;68900;52.134;5.420;2024-02-14T08:32:04;15.50;;;7.82;;
79454;SDS011;68900;52.134;5.420;2024-02-14T08:34:31;13.18;;;7.80;;
79454;SDS011;68900;52.134;5.420;2024-02-14T08:36:57;15.55;;;9.23;;
79454;SDS011;68900;52.134;5.420;2024-02-14T08:39:24;16.05;;;8.02;;
79454;SDS011;68900;52.134;5.420;2024-02-14T08:41:50;16.90;;;8.50;;
79454;SDS011;68900;52.134;5.420;2024-02-14T08:44:17;15.10;;;8.18;;
79454;SDS011;68900;52.134;5.420;2024-02-14T08:46:44;16.63;;;8.60;;
79454;SDS011;68900;52.134;5.420;2024-02-14T08:49:14;18.75;;;8.98;;
79454;SDS011;68900;52.134;5.420;2024-02-14T08:51:41;18.15;;;9.10;;
79454;SDS011;68900;52.134;5.420;2024-02-14T08:54:10;12.45;;;7.53;;
79454;SDS011;68900;52.134;5.420;2024-02-14T08:56:37;13.45;;;7.18;;
79454;SDS011;68900;52.134;5.420;2024-02-14T08:59:03;13.18;;;7.35;;
79454;SDS011;68900;52.134;5.420;2024-02-14T09:01:32;14.75;;;7.88;;
79454;SDS011;68900;52.134;5.420;2024-02-14T09:03:58;13.85;;;7.38;;
79454;SDS011;68900;52.134;5.420;2024-02-14T09:06:25;12.88;;;7.50;;
79454;SDS011;68900;52.134;5.420;2024-02-14T09:08:55;11.93;;;6.80;;
79454;SDS011;68900;52.134;5.420;2024-02-14T09:11:22;12.40;;;7.05;;
79454;SDS011;68900;52.134;5.420;2024-02-14T09:13:52;12.27;;;7.03;;
79454;SDS011;68900;52.134;5.420;2024-02-14T09:16:22;12.93;;;7.22;;
79454;SDS011;68900;52.134;5.420;2024-02-14T09:18:49;15.15;;;10.02;;
79454;SDS011;68900;52.134;5.420;2024-02-14T09:21:16;13.23;;;8.27;;
79454;SDS011;68900;52.134;5.420;2024-02-14T09:23:44;18.20;;;9.25;;
79454;SDS011;68900;52.134;5.420;2024-02-14T09:26:13;13.30;;;8.32;;
79454;SDS011;68900;52.134;5.420;2024-02-14T09:28:40;12.93;;;8.13;;
79454;SDS011;68900;52.134;5.420;2024-02-14T09:31:09;15.60;;;8.75;;
79454;SDS011;68900;52.134;5.420;2024-02-14T09:33:38;13.63;;;8.52;;
79454;SDS011;68900;52.134;5.420;2024-02-14T09:36:05;13.98;;;8.30;;
79454;SDS011;68900;52.134;5.420;2024-02-14T09:38:32;14.38;;;8.68;;
79454;SDS011;68900;52.134;5.420;2024-02-14T09:41:11;14.80;;;8.27;;
79454;SDS011;68900;52.134;5.420;2024-02-14T09:44:16;13.35;;;7.63;;
79454;SDS011;68900;52.134;5.420;2024-02-14T09:46:43;14.95;;;8.00;;
79454;SDS011;68900;52.134;5.420;2024-02-14T09:49:10;12.48;;;7.38;;
79454;SDS011;68900;52.134;5.420;2024-02-14T09:51:41;12.68;;;7.88;;
79454;SDS011;68900;52.134;5.420;2024-02-14T09:54:10;15.13;;;8.30;;
79454;SDS011;68900;52.134;5.420;2024-02-14T09:56:37;16.08;;;8.43;;
79454;SDS011;68900;52.134;5.420;2024-02-14T09:59:04;15.07;;;8.45;;
79454;SDS011;68900;52.134;5.420;2024-02-14T10:01:36;17.10;;;9.23;;
79454;SDS011;68900;52.134;5.420;2024-02-14T10:04:04;15.45;;;9.82;;
79454;SDS011;68900;52.134;5.420;2024-02-14T10:06:30;20.00;;;10.65;;
79454;SDS011;68900;52.134;5.420;2024-02-14T10:08:57;19.38;;;10.82;;
79454;SDS011;68900;52.134;5.420;2024-02-14T10:11:30;18.40;;;10.48;;
79454;SDS011;68900;52.134;5.420;2024-02-14T10:13:59;19.20;;;10.95;;
79454;SDS011;68900;52.134;5.420;2024-02-14T10:16:30;17.70;;;10.60;;
79454;SDS011;68900;52.134;5.420;2024-02-14T10:18:56;18.83;;;9.82;;
79454;SDS011;68900;52.134;5.420;2024-02-14T10:21:23;19.98;;;10.90;;
79454;SDS011;68900;52.134;5.420;2024-02-14T10:23:52;18.77;;;9.95;;
79454;SDS011;68900;52.134;5.420;2024-02-14T10:26:19;15.60;;;10.00;;
79454;SDS011;68900;52.134;5.420;2024-02-14T10:28:46;17.33;;;9.93;;
79454;SDS011;68900;52.134;5.420;2024-02-14T10:31:23;17.83;;;10.18;;
79454;SDS011;68900;52.134;5.420;2024-02-14T10:33:52;14.75;;;8.93;;
79454;SDS011;68900;52.134;5.420;2024-02-14T10:36:21;14.30;;;8.95;;
79454;SDS011;68900;52.134;5.420;2024-02-14T10:38:48;14.38;;;9.02;;
79454;SDS011;68900;52.134;5.420;2024-02-14T10:41:16;14.90;;;9.02;;
79454;SDS011;68900;52.134;5.420;2024-02-14T10:43:43;15.25;;;8.80;;
79454;SDS011;68900;52.134;5.420;2024-02-14T10:46:15;15.38;;;8.75;;
79454;SDS011;68900;52.134;5.420;2024-02-14T10:48:58;15.05;;;8.45;;
79454;SDS011;68900;52.134;5.420;2024-02-14T10:51:35;14.13;;;8.63;;
79454;SDS011;68900;52.134;5.420;2024-02-14T10:54:05;15.55;;;8.60;;
79454;SDS011;68900;52.134;5.420;2024-02-14T10:56:44;19.17;;;8.73;;
79454;SDS011;68900;52.134;5.420;2024-02-14T10:59:19;12.93;;;8.90;;
79454;SDS011;68900;52.134;5.420;2024-02-14T11:01:47;14.30;;;8.27;;
79454;SDS011;68900;52.134;5.420;2024-02-14T11:04:15;13.13;;;8.32;;
79454;SDS011;68900;52.134;5.420;2024-02-14T11:06:51;16.77;;;8.63;;
79454;SDS011;68900;52.134;5.420;2024-02-14T11:09:21;13.40;;;8.07;;
79454;SDS011;68900;52.134;5.420;2024-02-14T11:11:47;11.93;;;7.15;;
79454;SDS011;68900;52.134;5.420;2024-02-14T11:14:15;12.52;;;7.70;;
79454;SDS011;68900;52.134;5.420;2024-02-14T11:16:44;12.77;;;7.10;;
79454;SDS011;68900;52.134;5.420;2024-02-14T11:19:12;11.88;;;7.38;;
79454;SDS011;68900;52.134;5.420;2024-02-14T11:21:40;12.25;;;7.93;;
79454;SDS011;68900;52.134;5.420;2024-02-14T11:24:13;12.13;;;7.35;;
79454;SDS011;68900;52.134;5.420;2024-02-14T11:29:59;10.32;;;6.93;;
79454;SDS011;68900;52.134;5.420;2024-02-14T11:32:46;11.02;;;7.05;;
79454;SDS011;68900;52.134;5.420;2024-02-14T11:35:13;13.27;;;6.95;;
79454;SDS011;68900;52.134;5.420;2024-02-14T11:37:40;13.98;;;6.53;;
79454;SDS011;68900;52.134;5.420;2024-02-14T11:40:07;10.30;;;6.22;;
79454;SDS011;68900;52.134;5.420;2024-02-14T11:42:34;9.75;;;6.05;;
79454;SDS011;68900;52.134;5.420;2024-02-14T11:45:01;14.90;;;6.53;;
79454;SDS011;68900;52.134;5.420;2024-02-14T11:47:28;11.25;;;6.53;;
79454;SDS011;68900;52.134;5.420;2024-02-14T11:49:56;11.13;;;7.30;;
79454;SDS011;68900;52.134;5.420;2024-02-14T11:52:25;13.05;;;7.93;;
79454;SDS011;68900;52.134;5.420;2024-02-14T11:54:53;13.95;;;8.32;;
79454;SDS011;68900;52.134;5.420;2024-02-14T11:57:20;13.02;;;7.93;;
79454;SDS011;68900;52.134;5.420;2024-02-14T11:59:48;14.55;;;7.60;;
79454;SDS011;68900;52.134;5.420;2024-02-14T12:02:16;14.18;;;7.93;;
79454;SDS011;68900;52.134;5.420;2024-02-14T12:04:42;12.07;;;7.63;;
79454;SDS011;68900;52.134;5.420;2024-02-14T12:07:10;12.20;;;7.50;;
79454;SDS011;68900;52.134;5.420;2024-02-14T12:09:37;11.88;;;6.97;;
79454;SDS011;68900;52.134;5.420;2024-02-14T12:14:41;11.90;;;6.85;;
79454;SDS011;68900;52.134;5.420;2024-02-14T12:17:10;10.70;;;6.78;;
79454;SDS011;68900;52.134;5.420;2024-02-14T12:22:49;11.38;;;6.63;;
79454;SDS011;68900;52.134;5.420;2024-02-14T12:25:24;12.98;;;7.13;;
79454;SDS011;68900;52.134;5.420;2024-02-14T12:28:05;12.35;;;6.78;;
79454;SDS011;68900;52.134;5.420;2024-02-14T12:30:42;11.90;;;6.20;;
79454;SDS011;68900;52.134;5.420;2024-02-14T12:33:12;12.32;;;7.03;;
79454;SDS011;68900;52.134;5.420;2024-02-14T12:35:46;11.98;;;6.35;;
79454;SDS011;68900;52.134;5.420;2024-02-14T12:38:17;11.27;;;5.88;;
79454;SDS011;68900;52.134;5.420;2024-02-14T12:40:45;10.20;;;6.00;;
79454;SDS011;68900;52.134;5.420;2024-02-14T12:43:13;10.05;;;6.05;;
79454;SDS011;68900;52.134;5.420;2024-02-14T12:45:40;10.25;;;5.53;;
79454;SDS011;68900;52.134;5.420;2024-02-14T12:48:08;8.95;;;4.93;;
79454;SDS011;68900;52.134;5.420;2024-02-14T12:50:36;10.70;;;4.72;;
79454;SDS011;68900;52.134;5.420;2024-02-14T12:53:14;8.80;;;4.80;;
79454;SDS011;68900;52.134;5.420;2024-02-14T12:55:47;9.38;;;5.10;;
79454;SDS011;68900;52.134;5.420;2024-02-14T12:58:15;9.25;;;4.78;;
79454;SDS011;68900;52.134;5.420;2024-02-14T13:00:42;9.05;;;4.55;;
79454;SDS011;68900;52.134;5.420;2024-02-14T13:03:12;7.38;;;4.15;;
79454;SDS011;68900;52.134;5.420;2024-02-14T13:05:43;6.40;;;3.65;;
79454;SDS011;68900;52.134;5.420;2024-02-14T13:08:10;6.53;;;3.40;;
79454;SDS011;68900;52.134;5.420;2024-02-14T13:13:05;5.40;;;2.95;;
79454;SDS011;68900;52.134;5.420;2024-02-14T13:15:32;6.30;;;3.13;;
79454;SDS011;68900;52.134;5.420;2024-02-14T13:18:05;5.65;;;3.15;;
79454;SDS011;68900;52.134;5.420;2024-02-14T13:20:32;6.13;;;3.00;;
79454;SDS011;68900;52.134;5.420;2024-02-14T13:22:59;6.20;;;3.45;;
79454;SDS011;68900;52.134;5.420;2024-02-14T13:25:26;6.15;;;3.33;;
79454;SDS011;68900;52.134;5.420;2024-02-14T13:27:52;5.70;;;3.50;;
79454;SDS011;68900;52.134;5.420;2024-02-14T13:30:23;6.93;;;3.67;;
79454;SDS011;68900;52.134;5.420;2024-02-14T13:32:59;6.40;;;3.47;;
79454;SDS011;68900;52.134;5.420;2024-02-14T13:35:28;7.32;;;3.13;;
79454;SDS011;68900;52.134;5.420;2024-02-14T13:38:00;4.70;;;2.80;;
79454;SDS011;68900;52.134;5.420;2024-02-14T13:40:38;6.68;;;3.65;;
79454;SDS011;68900;52.134;5.420;2024-02-14T13:43:22;5.13;;;2.97;;
79454;SDS011;68900;52.134;5.420;2024-02-14T13:45:52;6.20;;;3.30;;
79454;SDS011;68900;52.134;5.420;2024-02-14T13:48:44;5.47;;;2.97;;
79454;SDS011;68900;52.134;5.420;2024-02-14T13:54:05;6.47;;;3.50;;
79454;SDS011;68900;52.134;5.420;2024-02-14T13:56:32;6.82;;;3.40;;
79454;SDS011;68900;52.134;5.420;2024-02-14T13:59:01;5.80;;;3.28;;
79454;SDS011;68900;52.134;5.420;2024-02-14T14:01:31;6.53;;;3.83;;
79454;SDS011;68900;52.134;5.420;2024-02-14T14:04:21;6.88;;;3.70;;
79454;SDS011;68900;52.134;5.420;2024-02-14T14:06:56;5.93;;;3.35;;
79454;SDS011;68900;52.134;5.420;2024-02-14T14:09:24;6.57;;;3.83;;
79454;SDS011;68900;52.134;5.420;2024-02-14T14:11:53;7.30;;;4.20;;
79454;SDS011;68900;52.134;5.420;2024-02-14T14:14:31;7.95;;;4.43;;
79454;SDS011;68900;52.134;5.420;2024-02-14T14:17:15;6.30;;;4.38;;
79454;SDS011;68900;52.134;5.420;2024-02-14T14:19:41;7.53;;;4.80;;
79454;SDS011;68900;52.134;5.420;2024-02-14T14:22:08;6.60;;;4.13;;
79454;SDS011;68900;52.134;5.420;2024-02-14T14:24:35;7.35;;;4.50;;
79454;SDS011;68900;52.134;5.420;2024-02-14T14:27:02;6.90;;;4.10;;
79454;SDS011;68900;52.134;5.420;2024-02-14T14:29:29;8.20;;;4.82;;
79454;SDS011;68900;52.134;5.420;2024-02-14T14:31:55;7.68;;;4.80;;
79454;SDS011;68900;52.134;5.420;2024-02-14T14:34:22;9.35;;;4.57;;
79454;SDS011;68900;52.134;5.420;2024-02-14T14:36:52;8.88;;;5.32;;
79454;SDS011;68900;52.134;5.420;2024-02-14T14:39:20;9.75;;;5.05;;
79454;SDS011;68900;52.134;5.420;2024-02-14T14:41:47;7.13;;;4.78;;
79454;SDS011;68900;52.134;5.420;2024-02-14T14:44:13;9.73;;;5.00;;
79454;SDS011;68900;52.134;5.420;2024-02-14T14:47:01;9.75;;;5.18;;
79454;SDS011;68900;52.134;5.420;2024-02-14T14:49:28;7.00;;;4.18;;
79454;SDS011;68900;52.134;5.420;2024-02-14T14:51:55;7.32;;;4.13;;
79454;SDS011;68900;52.134;5.420;2024-02-14T14:54:23;7.57;;;4.00;;
79454;SDS011;68900;52.134;5.420;2024-02-14T14:56:53;7.13;;;4.18;;
79454;SDS011;68900;52.134;5.420;2024-02-14T14:59:21;6.80;;;4.28;;
79454;SDS011;68900;52.134;5.420;2024-02-14T15:01:49;8.45;;;4.53;;